首页
METAR-TAF:

METAR-TAF

机场 :

慕尼黑机场

慕尼黑, 德国

纬度: 48-21N, 经度: 011-47E, 海拔: 453米

当前天气观测

该预报发布于18分钟前的05:20 UTC
风速1节,风向多变
温度 0°C
湿度 93%
气压 1016 hPa
能见度10公里或以上
1500米以下无云,无积雨云

METAR: EDDM 190520Z VRB01KT CAVOK M00/M01 Q1016 NOSIG

时间: 06:38 (05:38 UTC)

预报

该预报发布于38分钟前的05:00 UTC
预报有效从19日的 06点(UTC)到 20日的 12点(UTC)
风速3节,风向多变
能见度10公里或以上
1500米以下无云,无积雨云
短暂存在
从 19日的 10点(UTC)到 19日的 15点(UTC)
风速5节,风向
几率 30% :
短暂存在
从 20日的 02点(UTC)到 20日的 07点(UTC)
能見度: 3000
碎片雾

TAF: EDDM 190500Z 1906/2012 VRB03KT CAVOK TEMPO 1910/1915 01005KT PROB30 TEMPO 2002/2007 3000 BCFG

超过4000个机场的气象观测和天气预报(METAR&TAF报告)。

可查询的气象台以黄色和红色小点在地图上表示。

将鼠标移到小点上方,可查看气象台名称。

然后点击查看天气观测和预报。

如需切换地图:点击带黑十字的绿色按钮放大地图;点击带横线的绿色按钮缩小地图;或者点击绿色箭头查看邻近地区的地图。


METAR-TAF: